New Holland, South Dakota
Current Conditions -  °F | °C
As of 12:53 PM on Sunday 21 Dec 2014 (Local Time) from KMHE Reporting Station
Clear Clear  
Wind Chill: 24°   Ceiling: Unl
Heat Index: 35°   Visibility: 9mi
Dew Point: 31°   Wind: 18mph
Humidity: 85%   Direction: 160°SSE
Pressure: 29.59"   Gusts: NA
Location:  43.43°N, 98.61°W
Report Text: KMHE 211853Z AUTO 16016KT 9SM CLR 02/M01 A2959 RMK AO2 SLP031 T00171006
Loading
Personal Weather Stations






























Interactive Weather Map New forecast layout! Learn more

10-Day Weather Forecast

Advertisements
Track Severe Weather on mobile